Time;durP1;ratioP1;P1;durP2;ratioP2;P2;SDS_P1;SDS_P2;PMS_P1;PMS_P2;Temp;Humidity;BMP_temperature;BMP_pressure;BME280_temperature;BME280_humidity;BME280_pressure;Samples;Min_cycle;Max_cycle;Signal;HPM_P1;HPM_P2
2021/11/29 00:00:01;;;;;;;1.63;0.90;;;;;;;1.55;88.81;100387.81;5053476;28;20524;-70
2021/11/29 00:02:26;;;;;;;3.75;1.17;;;;;;;1.53;89.34;100395.59;5054052;28;20078;-70
2021/11/29 00:04:52;;;;;;;7.15;1.30;;;;;;;1.50;89.34;100392.53;5053378;28;20064;-70
2021/11/29 00:07:17;;;;;;;3.70;1.13;;;;;;;1.57;88.22;100399.47;5053396;28;20111;-70
2021/11/29 00:09:42;;;;;;;2.80;1.00;;;;;;;1.61;88.62;100401.75;5035616;28;20036;-70
2021/11/29 00:12:08;;;;;;;4.30;1.30;;;;;;;1.59;88.87;100401.91;5035335;28;20420;-70
2021/11/29 00:14:34;;;;;;;3.67;0.90;;;;;;;1.62;88.54;100391.44;5053269;28;20527;-70
2021/11/29 00:16:59;;;;;;;3.88;1.02;;;;;;;1.54;89.10;100401.50;5053125;28;20048;-70
2021/11/29 00:19:24;;;;;;;3.85;1.08;;;;;;;1.45;89.30;100404.88;5035460;28;20017;-70
2021/11/29 00:21:49;;;;;;;4.03;1.10;;;;;;;1.48;88.88;100404.59;5053142;28;20480;-70
2021/11/29 00:24:15;;;;;;;7.75;1.30;;;;;;;1.50;88.90;100412.91;5052826;28;20021;-70
2021/11/29 00:26:40;;;;;;;2.97;1.10;;;;;;;1.35;89.76;100405.69;5052867;28;20025;-70
2021/11/29 00:29:06;;;;;;;4.57;1.02;;;;;;;1.45;89.05;100415.06;5052817;28;20025;-70
2021/11/29 00:31:32;;;;;;;2.80;1.20;;;;;;;1.30;89.53;100386.66;5053103;28;20107;-71
2021/11/29 00:33:57;;;;;;;3.72;0.98;;;;;;;1.43;89.67;100415.19;5053303;28;20382;-70
2021/11/29 00:36:22;;;;;;;3.05;1.25;;;;;;;1.45;89.68;100413.31;5053758;28;20029;-70
2021/11/29 00:38:48;;;;;;;2.20;0.90;;;;;;;1.47;88.42;100413.19;5053639;28;20112;-71
2021/11/29 00:41:13;;;;;;;3.58;1.30;;;;;;;1.55;88.38;100413.28;5053101;28;20455;-70
2021/11/29 00:43:39;;;;;;;4.18;0.95;;;;;;;1.51;89.29;100417.84;5053109;28;20021;-70
2021/11/29 00:46:04;;;;;;;4.47;1.23;;;;;;;1.52;89.58;100422.00;5052964;28;20095;-70
2021/11/29 00:48:30;;;;;;;3.33;0.70;;;;;;;1.52;89.59;100411.00;5053021;28;20044;-72
2021/11/29 00:50:55;;;;;;;2.47;0.85;;;;;;;1.68;90.10;100416.34;5053038;28;20165;-71
2021/11/29 00:53:21;;;;;;;3.85;0.80;;;;;;;1.61;89.40;100412.72;5052964;28;20024;-70
2021/11/29 00:55:46;;;;;;;3.53;1.05;;;;;;;1.68;89.97;100424.00;5052841;28;20032;-70
2021/11/29 00:58:11;;;;;;;3.20;0.82;;;;;;;1.73;89.67;100421.03;5052896;28;20104;-70
2021/11/29 01:00:38;;;;;;;4.35;1.05;;;;;;;1.75;89.21;100424.22;5035047;28;20035;-70
2021/11/29 01:03:04;;;;;;;5.57;0.90;;;;;;;1.80;89.37;100420.31;5052952;28;20100;-70
2021/11/29 01:05:30;;;;;;;5.63;1.10;;;;;;;1.77;89.82;100423.16;5052804;28;20071;-70
2021/11/29 01:07:55;;;;;;;3.22;1.02;;;;;;;1.78;89.12;100423.94;5052829;28;20456;-70
2021/11/29 01:10:21;;;;;;;4.90;0.90;;;;;;;1.89;89.95;100425.53;5052750;28;20021;-70
2021/11/29 01:12:47;;;;;;;4.05;0.95;;;;;;;1.99;89.31;100434.75;5035194;28;20167;-70
2021/11/29 01:15:16;;;;;;;4.13;0.70;;;;;;;2.11;88.68;100435.41;5052783;28;20021;-69
2021/11/29 01:17:42;;;;;;;3.83;0.80;;;;;;;2.17;88.77;100442.47;5052558;28;20041;-69
2021/11/29 01:20:08;;;;;;;1.92;0.60;;;;;;;2.17;88.60;100434.81;5052741;28;20029;-70
2021/11/29 01:22:34;;;;;;;4.22;0.73;;;;;;;2.20;88.36;100432.00;5053223;28;20372;-70
2021/11/29 01:24:59;;;;;;;3.63;0.80;;;;;;;2.17;88.49;100439.94;5036554;28;20017;-70
2021/11/29 01:27:25;;;;;;;2.08;0.60;;;;;;;2.12;88.70;100437.00;5056382;28;20029;-70
2021/11/29 01:29:50;;;;;;;2.60;0.73;;;;;;;2.01;88.08;100434.63;5056308;28;20387;-70
2021/11/29 01:32:15;;;;;;;2.38;0.98;;;;;;;1.89;88.71;100436.53;5056169;28;20017;-70
2021/11/29 01:34:41;;;;;;;2.50;0.73;;;;;;;1.85;88.91;100435.22;5038334;28;20031;-71
2021/11/29 01:37:06;;;;;;;3.13;0.60;;;;;;;1.83;89.26;100436.28;5038265;28;20430;-70
2021/11/29 01:39:31;;;;;;;4.55;0.95;;;;;;;1.81;89.40;100446.59;5056050;28;20103;-70
2021/11/29 01:41:57;;;;;;;3.67;0.68;;;;;;;1.77;89.22;100448.63;5056000;28;20051;-70
2021/11/29 01:44:22;;;;;;;4.18;0.90;;;;;;;1.68;89.82;100451.22;5056415;28;20060;-70
2021/11/29 01:46:48;;;;;;;4.13;0.70;;;;;;;1.63;90.20;100459.25;5055963;28;20053;-71
2021/11/29 01:49:13;;;;;;;5.88;0.80;;;;;;;1.61;89.87;100471.31;5056438;28;20082;-70
2021/11/29 01:51:38;;;;;;;1.00;0.55;;;;;;;1.56;90.42;100471.72;5055856;28;20100;-70
2021/11/29 01:54:04;;;;;;;3.65;0.82;;;;;;;1.43;91.04;100475.50;5037780;28;20021;-70
2021/11/29 01:56:30;;;;;;;2.15;0.75;;;;;;;1.48;90.55;100474.16;5055727;28;20021;-70
2021/11/29 01:58:55;;;;;;;1.92;0.73;;;;;;;1.41;90.82;100475.66;5055668;28;20025;-70
2021/11/29 02:01:24;;;;;;;1.58;0.60;;;;;;;1.42;90.83;100474.69;5055701;28;20471;-70
2021/11/29 02:03:56;;;;;;;1.52;0.70;;;;;;;1.38;91.13;100472.53;5055766;28;20033;-70
2021/11/29 02:06:26;;;;;;;4.70;0.90;;;;;;;1.39;91.36;100479.25;5037684;28;20017;-70
2021/11/29 02:08:52;;;;;;;6.90;1.23;;;;;;;1.44;91.10;100489.81;5037649;28;20543;-71
2021/11/29 02:11:18;;;;;;;4.53;0.80;;;;;;;1.49;90.89;100485.94;5056010;28;20155;-70
2021/11/29 02:13:44;;;;;;;4.45;0.80;;;;;;;1.54;90.90;100480.44;5055448;28;20043;-70
2021/11/29 02:16:09;;;;;;;2.70;0.68;;;;;;;1.51;91.06;100480.72;5037319;28;20430;-70
2021/11/29 02:18:40;;;;;;;3.38;0.75;;;;;;;1.47;90.83;100472.56;5037972;28;20050;-70
2021/11/29 02:21:14;;;;;;;2.03;1.00;;;;;;;1.40;90.88;100478.31;5055324;28;20024;-70
2021/11/29 02:23:51;;;;;;;4.93;0.85;;;;;;;1.29;91.21;100472.41;5055822;28;20463;-70
2021/11/29 02:26:21;;;;;;;1.17;0.82;;;;;;;1.37;90.87;100465.84;5055690;28;20448;-70
2021/11/29 02:29:04;;;;;;;1.15;0.80;;;;;;;1.31;91.63;100462.09;5037526;28;20049;-70
2021/11/29 02:31:34;;;;;;;2.15;1.02;;;;;;;1.34;91.34;100461.81;5055328;28;20025;-70
2021/11/29 02:34:07;;;;;;;2.83;1.27;;;;;;;1.34;90.45;100460.06;5055377;28;20468;-71
2021/11/29 02:36:32;;;;;;;;;;;;;;;1.34;90.48;100454.19;5055323;28;20021;-70
2021/11/29 02:38:57;;;;;;;3.13;1.00;;;;;;;1.34;90.64;100462.63;5037121;28;20003;-70
2021/11/29 02:41:23;;;;;;;1.20;0.82;;;;;;;1.33;91.07;100462.78;5054879;28;20490;-70
2021/11/29 02:43:48;;;;;;;2.33;1.27;;;;;;;1.39;90.35;100461.44;5036831;28;20033;-70
2021/11/29 02:46:13;;;;;;;2.80;0.82;;;;;;;1.28;90.50;100459.81;5054697;28;20051;-70
2021/11/29 02:48:41;;;;;;;3.00;0.98;;;;;;;1.30;90.45;100458.75;5055305;28;20024;-70
2021/11/29 02:51:07;;;;;;;1.67;0.90;;;;;;;1.27;90.73;100453.13;5036783;28;20021;-70
2021/11/29 02:53:32;;;;;;;4.30;1.17;;;;;;;1.23;90.84;100444.94;5054650;28;20071;-70
2021/11/29 02:55:58;;;;;;;2.80;1.10;;;;;;;1.40;89.47;100440.13;5036624;28;20021;-70
2021/11/29 02:58:23;;;;;;;4.90;1.00;;;;;;;1.39;89.81;100443.63;5055072;28;20024;-70
2021/11/29 03:00:48;;;;;;;4.10;1.25;;;;;;;1.24;90.24;100451.66;5054489;28;20083;-70
2021/11/29 03:03:14;;;;;;;3.03;1.20;;;;;;;1.19;89.71;100448.69;5054458;28;20025;-70
2021/11/29 03:05:39;;;;;;;3.45;1.70;;;;;;;1.09;90.22;100452.97;5054342;28;20384;-70
2021/11/29 03:08:05;;;;;;;2.78;1.30;;;;;;;1.05;90.16;100457.53;5036553;28;20074;-70
2021/11/29 03:10:31;;;;;;;2.97;1.40;;;;;;;0.93;90.19;100450.97;5036443;28;20108;-70
2021/11/29 03:12:57;;;;;;;3.17;1.20;;;;;;;0.93;90.45;100453.50;5054254;28;20025;-70
2021/11/29 03:15:22;;;;;;;7.25;1.20;;;;;;;0.65;90.43;100438.06;5054258;28;20074;-70
2021/11/29 03:17:47;;;;;;;6.50;1.17;;;;;;;0.97;90.32;100461.69;5054140;28;20055;-70
2021/11/29 03:20:14;;;;;;;5.68;1.30;;;;;;;1.07;90.56;100472.69;5036268;28;20032;-70
2021/11/29 03:22:40;;;;;;;2.03;1.13;;;;;;;1.15;90.07;100465.16;5054071;28;20029;-70
2021/11/29 03:25:06;;;;;;;4.60;1.00;;;;;;;1.27;89.52;100466.66;5035971;28;20087;-70
2021/11/29 03:27:31;;;;;;;6.50;1.30;;;;;;;1.35;88.70;100469.34;5053966;28;20029;-70
2021/11/29 03:29:57;;;;;;;3.22;1.15;;;;;;;1.53;88.22;100479.66;5054448;28;20082;-70
2021/11/29 03:32:23;;;;;;;3.75;1.30;;;;;;;1.53;87.74;100479.66;5053882;28;20112;-70
2021/11/29 03:34:49;;;;;;;3.83;1.00;;;;;;;1.58;87.39;100474.97;5053911;28;20100;-71
2021/11/29 03:37:16;;;;;;;6.35;1.17;;;;;;;1.57;87.71;100480.19;5053816;28;20511;-71
2021/11/29 03:39:41;;;;;;;6.97;1.27;;;;;;;1.45;87.53;100476.16;5053911;28;20032;-70
2021/11/29 03:42:07;;;;;;;10.02;1.60;;;;;;;1.39;87.44;100462.22;5053755;28;20033;-70
2021/11/29 03:44:34;;;;;;;2.95;1.08;;;;;;;1.34;87.70;100477.09;5053612;28;20023;-70
2021/11/29 03:47:00;;;;;;;5.43;0.95;;;;;;;1.39;87.41;100482.59;5053859;28;20408;-70
2021/11/29 03:49:26;;;;;;;2.33;1.05;;;;;;;1.31;88.43;100485.81;5053670;28;20073;-69
2021/11/29 03:51:52;;;;;;;4.63;1.27;;;;;;;1.42;87.72;100489.19;5053642;28;20086;-70
2021/11/29 03:54:18;;;;;;;8.23;1.30;;;;;;;1.39;87.78;100492.00;5053523;28;20025;-70
2021/11/29 03:56:43;;;;;;;5.00;1.23;;;;;;;1.46;87.53;100493.06;5035823;28;20036;-70
2021/11/29 03:59:09;;;;;;;4.88;1.17;;;;;;;1.43;87.09;100486.47;5054005;28;20440;-70
2021/11/29 04:01:34;;;;;;;2.92;0.95;;;;;;;1.37;87.00;100491.31;5035539;28;20468;-70
2021/11/29 04:04:01;;;;;;;3.92;1.00;;;;;;;1.40;87.25;100491.84;5053465;28;20151;-70
2021/11/29 04:06:26;;;;;;;6.55;1.40;;;;;;;1.21;87.29;100471.47;5035397;28;20029;-70
2021/11/29 04:08:52;;;;;;;5.07;1.17;;;;;;;1.41;86.49;100490.09;5035521;28;20032;-70
2021/11/29 04:11:17;;;;;;;7.93;1.30;;;;;;;1.43;86.32;100490.78;5035482;28;20021;-70
2021/11/29 04:13:42;;;;;;;5.13;1.60;;;;;;;1.39;86.26;100502.97;5053360;28;20052;-70
2021/11/29 04:16:08;;;;;;;9.68;1.50;;;;;;;1.41;86.70;100501.09;5035223;28;20756;-70
2021/11/29 04:18:35;;;;;;;4.32;1.33;;;;;;;1.48;86.33;100504.72;5035416;28;20024;-71
2021/11/29 04:21:01;;;;;;;7.65;1.58;;;;;;;1.44;86.32;100503.38;5035373;28;20472;-71
2021/11/29 04:23:26;;;;;;;4.95;1.67;;;;;;;1.45;87.05;100499.09;5053155;28;20025;-71
2021/11/29 04:25:56;;;;;;;6.45;1.60;;;;;;;1.51;86.85;100501.91;5053154;28;20029;-71
2021/11/29 04:28:21;;;;;;;8.77;1.20;;;;;;;1.43;86.81;100501.75;5053191;28;20464;-71
2021/11/29 04:30:47;;;;;;;3.33;1.27;;;;;;;1.38;86.96;100511.53;5053342;28;20029;-71
2021/11/29 04:33:12;;;;;;;8.25;1.35;;;;;;;1.42;87.11;100512.09;5053223;28;20071;-71
2021/11/29 04:35:37;;;;;;;7.15;1.55;;;;;;;1.32;86.87;100506.97;5035299;28;20053;-71
2021/11/29 04:38:03;;;;;;;5.72;1.30;;;;;;;1.47;86.38;100515.84;5035159;28;20036;-71
2021/11/29 04:40:29;;;;;;;3.92;1.30;;;;;;;1.58;86.59;100509.78;5053040;28;20025;-72
2021/11/29 04:42:54;;;;;;;1.90;1.08;;;;;;;1.67;85.87;100518.38;5053030;28;20032;-71
2021/11/29 04:45:19;;;;;;;5.28;1.38;;;;;;;1.56;86.95;100526.97;5053555;28;20021;-71
2021/11/29 04:47:45;;;;;;;5.45;1.13;;;;;;;1.50;86.89;100524.97;5053132;28;20059;-71
2021/11/29 04:50:10;;;;;;;3.03;1.30;;;;;;;1.44;87.22;100526.31;5052935;28;20033;-71
2021/11/29 04:52:36;;;;;;;5.30;1.60;;;;;;;1.35;87.37;100517.72;5035089;28;20024;-71
2021/11/29 04:55:02;;;;;;;2.55;1.40;;;;;;;1.33;87.67;100511.16;5052951;28;20418;-71
2021/11/29 04:57:28;;;;;;;5.78;1.20;;;;;;;1.23;87.34;100511.13;5035105;28;20029;-71
2021/11/29 04:59:55;;;;;;;8.00;1.30;;;;;;;1.42;87.02;100514.63;5054819;28;20104;-71
2021/11/29 05:02:21;;;;;;;9.20;1.80;;;;;;;1.46;85.69;100516.75;5056892;28;20025;-71
2021/11/29 05:04:46;;;;;;;6.55;1.30;;;;;;;1.37;86.72;100521.88;5038680;28;20039;-71
2021/11/29 05:07:15;;;;;;;7.13;1.35;;;;;;;1.35;87.11;100522.81;5056707;28;20021;-71
2021/11/29 05:09:42;;;;;;;7.82;1.30;;;;;;;1.31;87.38;100515.56;5056662;28;20056;-71
2021/11/29 05:12:09;;;;;;;4.18;1.30;;;;;;;1.24;87.62;100527.22;5056493;28;20483;-71
2021/11/29 05:14:34;;;;;;;10.90;1.45;;;;;;;1.27;87.41;100517.56;5038604;28;20087;-70
2021/11/29 05:16:59;;;;;;;10.20;1.35;;;;;;;1.35;86.68;100525.38;5038432;28;20057;-71
2021/11/29 05:19:25;;;;;;;2.75;0.95;;;;;;;1.25;87.11;100516.09;5056775;28;20035;-71
2021/11/29 05:21:50;;;;;;;4.47;1.15;;;;;;;1.27;87.38;100519.31;5038532;28;20025;-70
2021/11/29 05:24:15;;;;;;;6.55;1.25;;;;;;;1.23;86.97;100521.31;5056287;28;20049;-71
2021/11/29 05:26:41;;;;;;;3.88;1.10;;;;;;;1.25;87.04;100531.38;5056359;28;20087;-71
2021/11/29 05:29:06;;;;;;;8.90;1.50;;;;;;;1.12;87.67;100539.25;5056548;28;20029;-70
2021/11/29 05:31:31;;;;;;;7.00;1.52;;;;;;;1.08;87.40;100548.88;5056218;28;20099;-71
2021/11/29 05:33:57;;;;;;;12.82;1.63;;;;;;;1.20;87.33;100541.94;5056227;28;20032;-71
2021/11/29 05:36:22;;;;;;;3.50;1.20;;;;;;;1.17;87.84;100552.38;5038211;28;20025;-71
2021/11/29 05:38:47;;;;;;;9.15;1.30;;;;;;;1.31;87.42;100549.47;5056011;28;20023;-71
2021/11/29 05:41:13;;;;;;;6.07;1.27;;;;;;;1.63;86.82;100550.16;5056045;28;20025;-71
2021/11/29 05:43:38;;;;;;;5.25;1.25;;;;;;;1.84;86.23;100543.16;5055952;28;20048;-70
2021/11/29 05:46:04;;;;;;;7.95;1.25;;;;;;;1.93;86.45;100550.00;5056134;28;20048;-70
2021/11/29 05:48:30;;;;;;;5.20;1.10;;;;;;;2.00;86.59;100555.34;5055933;28;20031;-70
2021/11/29 05:50:57;;;;;;;3.45;0.93;;;;;;;1.94;86.75;100548.25;5056126;28;20025;-70
2021/11/29 05:53:23;;;;;;;3.78;1.20;;;;;;;1.99;87.18;100556.31;5055850;28;20021;-70
2021/11/29 05:55:48;;;;;;;5.25;1.10;;;;;;;2.03;87.23;100565.28;5055670;28;20021;-71
2021/11/29 05:58:13;;;;;;;7.55;1.17;;;;;;;2.13;86.46;100567.78;5055699;28;20483;-71
2021/11/29 06:00:39;;;;;;;5.10;1.00;;;;;;;2.20;86.04;100569.66;5055686;28;20025;-70
2021/11/29 06:03:05;;;;;;;4.22;1.15;;;;;;;2.28;86.60;100565.66;5055647;28;20036;-71
2021/11/29 06:05:30;;;;;;;5.60;1.17;;;;;;;2.23;85.84;100573.69;5055997;28;20456;-70
2021/11/29 06:07:55;;;;;;;5.35;1.08;;;;;;;2.32;87.00;100569.50;5055779;28;20100;-70
2021/11/29 06:10:21;;;;;;;9.82;1.30;;;;;;;2.36;86.69;100569.13;5037258;28;20036;-71
2021/11/29 06:12:46;;;;;;;4.20;1.13;;;;;;;2.24;86.32;100568.47;5055523;28;20025;-70
2021/11/29 06:15:14;;;;;;;6.55;1.45;;;;;;;2.37;86.60;100580.91;5037604;28;20464;-70
2021/11/29 06:17:40;;;;;;;4.53;1.08;;;;;;;2.45;86.99;100577.69;5055337;28;20480;-70
2021/11/29 06:20:06;;;;;;;5.47;0.90;;;;;;;2.49;87.02;100579.78;5055278;28;20036;-70
2021/11/29 06:22:32;;;;;;;4.38;0.98;;;;;;;2.66;87.35;100583.38;5055703;28;20115;-70
2021/11/29 06:24:57;;;;;;;6.35;1.70;;;;;;;2.64;87.72;100576.78;5055087;28;20104;-70
2021/11/29 06:27:23;;;;;;;5.85;1.10;;;;;;;2.67;87.11;100574.75;5055153;28;20029;-70
2021/11/29 06:29:48;;;;;;;5.35;1.00;;;;;;;2.69;87.07;100583.09;5055067;28;20460;-70
2021/11/29 06:32:13;;;;;;;7.00;1.52;;;;;;;2.76;87.40;100577.41;5037364;28;20485;-70
2021/11/29 06:34:39;;;;;;;4.85;0.85;;;;;;;2.85;86.86;100589.31;5037169;28;20482;-70
2021/11/29 06:37:05;;;;;;;7.43;1.27;;;;;;;2.85;87.03;100587.59;5055003;28;20021;-70
2021/11/29 06:39:31;;;;;;;4.15;1.20;;;;;;;2.91;87.08;100599.00;5054921;28;20032;-70
2021/11/29 06:41:56;;;;;;;7.53;0.95;;;;;;;2.95;87.93;100590.09;5054880;28;20031;-70
2021/11/29 06:44:22;;;;;;;8.07;1.00;;;;;;;2.81;87.75;100593.91;5036913;28;20021;-70
2021/11/29 06:46:47;;;;;;;4.35;1.02;;;;;;;2.86;87.87;100593.50;5054751;28;20039;-70
2021/11/29 06:49:13;;;;;;;7.90;1.85;;;;;;;2.91;87.74;100591.34;5036845;28;20528;-70
2021/11/29 06:51:38;;;;;;;5.00;1.58;;;;;;;2.82;87.96;100595.53;5054971;28;20028;-70
2021/11/29 06:54:04;;;;;;;4.13;1.48;;;;;;;2.78;88.38;100606.97;5054589;28;20027;-70
2021/11/29 06:56:30;;;;;;;5.10;1.05;;;;;;;2.83;87.87;100604.78;5055143;28;20028;-70
2021/11/29 06:58:55;;;;;;;4.47;1.20;;;;;;;2.89;88.50;100613.63;5054580;28;20025;-70
2021/11/29 07:01:20;;;;;;;3.90;1.38;;;;;;;2.91;88.84;100615.13;5054474;28;20017;-68
2021/11/29 07:03:46;;;;;;;8.73;1.38;;;;;;;2.88;88.75;100615.41;5054421;28;20380;-68
2021/11/29 07:06:12;;;;;;;5.97;1.00;;;;;;;2.76;88.76;100597.84;5054247;28;20017;-69
2021/11/29 07:08:38;;;;;;;5.47;1.10;;;;;;;2.98;89.38;100632.41;5036480;28;20021;-70
2021/11/29 07:11:03;;;;;;;9.13;1.25;;;;;;;2.98;89.21;100633.22;5054042;28;20025;-70
2021/11/29 07:13:29;;;;;;;8.55;1.15;;;;;;;2.97;90.32;100639.28;5053985;28;20379;-71
2021/11/29 07:15:54;;;;;;;3.45;0.75;;;;;;;3.00;89.90;100640.75;5035955;28;20028;-71
2021/11/29 07:18:19;;;;;;;3.55;0.85;;;;;;;2.98;90.37;100637.53;5054109;28;20182;-69
2021/11/29 07:20:45;;;;;;;3.88;0.88;;;;;;;2.83;90.83;100639.72;5054058;28;20079;-69
2021/11/29 07:23:10;;;;;;;5.90;1.42;;;;;;;2.79;90.90;100646.03;5035476;28;20024;-69
2021/11/29 07:25:36;;;;;;;4.78;1.60;;;;;;;2.76;90.89;100647.13;5054460;28;20025;-69
2021/11/29 07:28:02;;;;;;;2.85;1.17;;;;;;;2.67;90.90;100641.09;5036027;28;20031;-69
2021/11/29 07:30:28;;;;;;;4.38;0.95;;;;;;;2.81;90.97;100644.16;5035976;28;20024;-69
2021/11/29 07:32:55;;;;;;;5.22;0.90;;;;;;;2.90;91.09;100653.53;5053767;28;20028;-70
2021/11/29 07:35:22;;;;;;;3.03;0.85;;;;;;;2.95;90.60;100656.47;5035933;28;20494;-69
2021/11/29 07:37:48;;;;;;;0.80;0.47;;;;;;;3.07;89.45;100660.44;5053848;28;20108;-69
2021/11/29 07:40:15;;;;;;;3.05;0.85;;;;;;;3.02;90.42;100662.63;5053693;28;20056;-69
2021/11/29 07:42:40;;;;;;;1.83;0.40;;;;;;;3.02;90.17;100657.53;5035873;28;20021;-69
2021/11/29 07:45:11;;;;;;;1.85;0.52;;;;;;;3.19;89.98;100670.47;5036026;28;20033;-69
2021/11/29 07:47:36;;;;;;;1.88;0.50;;;;;;;3.18;89.73;100679.91;5035590;28;20063;-71
2021/11/29 07:50:02;;;;;;;1.15;0.50;;;;;;;3.25;89.84;100680.13;5053593;28;20079;-69
2021/11/29 07:52:27;;;;;;;2.08;0.38;;;;;;;3.14;89.90;100684.50;5053604;28;20032;-69
2021/11/29 07:54:52;;;;;;;2.95;0.57;;;;;;;3.15;90.55;100698.84;5053391;28;20353;-70
2021/11/29 08:00:40;;;;;;;3.72;0.60;;;;;;;3.16;89.41;100677.50;5054631;28;20121;-69
2021/11/29 08:03:06;;;;;;;3.20;0.93;;;;;;;3.28;89.49;100707.94;5055078;28;20444;-69
2021/11/29 08:05:33;;;;;;;1.45;0.70;;;;;;;3.21;89.63;100705.16;5053315;28;20025;-69
2021/11/29 08:08:00;;;;;;;1.15;0.60;;;;;;;3.25;89.55;100691.16;5053359;28;20029;-69
2021/11/29 08:10:26;;;;;;;2.33;0.60;;;;;;;3.42;88.79;100704.91;5035375;28;20029;-69
2021/11/29 08:12:52;;;;;;;1.40;0.50;;;;;;;3.38;88.72;100704.41;5053227;28;20519;-69
2021/11/29 08:15:19;;;;;;;3.70;0.73;;;;;;;3.36;89.30;100715.69;5035558;28;20155;-70
2021/11/29 08:17:44;;;;;;;1.33;0.50;;;;;;;3.44;88.91;100715.00;5054214;28;20500;-69
2021/11/29 08:20:12;;;;;;;5.20;3.15;;;;;;;3.39;89.62;100715.41;5053201;28;20085;-69
2021/11/29 08:22:37;;;;;;;5.82;2.10;;;;;;;3.54;89.60;100723.41;5053134;28;20102;-68
2021/11/29 08:25:04;;;;;;;3.97;1.25;;;;;;;3.75;88.50;100720.63;5053037;28;20088;-70
2021/11/29 08:27:32;;;;;;;2.78;1.00;;;;;;;3.65;89.30;100719.88;5035098;28;20029;-69
2021/11/29 08:29:57;;;;;;;3.35;2.30;;;;;;;3.41;88.88;100693.09;5035258;28;20028;-69
2021/11/29 08:32:22;;;;;;;3.28;0.80;;;;;;;3.59;89.12;100722.03;5053176;28;20460;-70
2021/11/29 08:34:48;;;;;;;1.95;0.50;;;;;;;3.69;88.61;100732.22;5038554;28;20017;-69
2021/11/29 08:37:13;;;;;;;1.33;0.50;;;;;;;3.72;88.64;100726.81;5039294;28;20079;-69
2021/11/29 08:39:39;;;;;;;1.70;0.55;;;;;;;3.92;86.92;100736.94;5057483;28;20027;-70
2021/11/29 08:42:05;;;;;;;0.52;0.20;;;;;;;3.69;87.58;100727.13;5039217;28;20029;-70
2021/11/29 08:44:31;;;;;;;4.03;1.90;;;;;;;3.63;88.57;100737.13;5039122;28;20025;-70
2021/11/29 08:46:58;;;;;;;6.00;4.05;;;;;;;3.61;88.23;100740.59;5057072;28;20025;-70
2021/11/29 08:49:24;;;;;;;1.35;0.60;;;;;;;3.71;88.58;100749.97;5039147;28;20036;-69
2021/11/29 08:51:50;;;;;;;2.30;1.00;;;;;;;3.88;87.74;100756.84;5038903;28;20035;-69
2021/11/29 08:54:16;;;;;;;4.15;1.50;;;;;;;4.12;86.40;100747.84;5056621;28;20032;-70
2021/11/29 08:56:43;;;;;;;5.72;2.25;;;;;;;4.23;86.84;100751.00;5056737;28;20112;-70
2021/11/29 08:59:08;;;;;;;1.85;0.90;;;;;;;4.33;86.27;100752.66;5056731;28;20028;-70
2021/11/29 09:01:34;;;;;;;2.90;0.80;;;;;;;4.33;85.98;100755.22;5056692;28;20423;-70
2021/11/29 09:04:00;;;;;;;4.68;2.33;;;;;;;4.30;84.97;100749.44;5038882;28;20028;-70
2021/11/29 09:06:26;;;;;;;2.38;1.40;;;;;;;4.54;84.74;100763.41;5039233;28;20033;-69
2021/11/29 09:12:15;;;;;;;2.15;0.80;;;;;;;4.62;84.75;100780.59;5056893;28;20051;-70
2021/11/29 09:14:40;;;;;;;1.67;0.80;;;;;;;4.61;84.87;100777.22;5038459;28;20164;-71
2021/11/29 09:17:05;;;;;;;5.28;1.77;;;;;;;4.90;84.28;100792.31;5056227;28;20159;-69
2021/11/29 09:19:34;;;;;;;57.60;19.95;;;;;;;4.60;84.21;100750.00;5038609;28;20029;-70
2021/11/29 09:21:59;;;;;;;8.73;4.40;;;;;;;4.59;84.52;100752.72;5038395;28;20539;-70
2021/11/29 09:24:24;;;;;;;3.10;1.15;;;;;;;4.61;85.12;100794.34;5056404;28;20025;-69
2021/11/29 09:26:50;;;;;;;3.40;1.23;;;;;;;4.61;85.66;100789.22;5038236;28;20499;-70
2021/11/29 09:29:15;;;;;;;4.88;1.40;;;;;;;4.18;85.78;100765.97;5056091;28;20096;-69
2021/11/29 09:31:40;;;;;;;4.35;0.93;;;;;;;4.50;86.24;100806.41;5056281;28;20032;-69
2021/11/29 09:34:06;;;;;;;3.25;1.25;;;;;;;4.84;85.50;100812.59;5056482;28;20080;-70
2021/11/29 09:36:31;;;;;;;1.98;1.17;;;;;;;5.00;84.39;100811.91;5056054;28;20032;-69
2021/11/29 09:38:56;;;;;;;11.68;3.92;;;;;;;4.81;84.81;100816.25;5055971;28;20487;-70
2021/11/29 09:41:24;;;;;;;4.30;0.93;;;;;;;4.69;85.80;100818.25;5038052;28;20170;-70
2021/11/29 09:43:50;;;;;;;2.72;0.85;;;;;;;4.80;85.76;100822.31;5055828;28;20059;-69
2021/11/29 09:46:16;;;;;;;2.00;0.50;;;;;;;4.84;85.58;100815.97;5055037;28;20482;-70
2021/11/29 09:48:42;;;;;;;6.00;0.73;;;;;;;4.71;85.29;100779.69;5038681;28;20387;-70
2021/11/29 09:51:08;;;;;;;3.67;0.70;;;;;;;4.74;85.77;100790.44;5038326;28;20036;-70
2021/11/29 09:53:34;;;;;;;6.55;1.00;;;;;;;5.11;84.99;100827.03;5055608;28;20025;-70
2021/11/29 09:56:00;;;;;;;5.10;0.93;;;;;;;5.68;82.99;100831.69;5055514;28;20064;-70
2021/11/29 09:58:27;;;;;;;3.10;0.95;;;;;;;9.11;72.27;100835.28;5055373;28;20072;-71
2021/11/29 10:00:57;;;;;;;3.65;1.08;;;;;;;14.07;54.87;100831.16;5037621;28;20036;-71
2021/11/29 10:03:23;;;;;;;1.83;0.77;;;;;;;16.66;44.92;100823.22;5037603;28;20017;-72
2021/11/29 10:05:50;;;;;;;4.72;1.00;;;;;;;18.33;41.04;100826.78;5055375;28;20025;-72
2021/11/29 10:08:22;;;;;;;2.28;0.88;;;;;;;18.00;41.08;100832.75;5055234;28;20023;-71
2021/11/29 10:10:49;;;;;;;;;;;;;;;17.55;43.05;100833.44;5056014;28;20024;-72
2021/11/29 10:13:15;;;;;;;2.00;0.77;;;;;;;19.21;38.07;100832.25;5055454;28;19999;-72
2021/11/29 10:15:42;;;;;;;4.50;1.02;;;;;;;18.73;39.04;100831.06;5037394;28;20453;-72
2021/11/29 10:18:29;;;;;;;2.67;0.80;;;;;;;18.37;41.32;100837.56;5037130;28;20132;-73
2021/11/29 10:21:00;;;;;;;5.25;1.02;;;;;;;18.79;39.66;100834.56;5055111;28;20091;-72
2021/11/29 10:23:35;;;;;;;4.70;0.83;;;;;;;18.81;40.15;100843.75;5055435;28;20035;-73
2021/11/29 10:26:08;;;;;;;3.83;1.08;;;;;;;18.80;40.30;100821.25;5037160;28;20025;-73
2021/11/29 10:28:39;;;;;;;2.10;0.85;;;;;;;19.02;40.12;100854.53;5037221;28;20028;-73
2021/11/29 10:31:22;;;;;;;5.28;1.20;;;;;;;15.11;46.46;100853.22;5055043;28;20048;-72
2021/11/29 10:34:02;;;;;;;3.80;0.90;;;;;;;12.18;56.41;100851.56;5037028;28;20075;-72
2021/11/29 10:36:31;;;;;;;3.92;1.00;;;;;;;9.61;65.72;100855.25;5055157;28;20475;-72
2021/11/29 10:39:00;;;;;;;5.45;1.13;;;;;;;10.00;65.64;100867.03;5055267;28;20090;-71
2021/11/29 10:41:29;;;;;;;2.67;0.80;;;;;;;11.27;58.92;100869.81;5054668;28;20472;-73
2021/11/29 10:43:55;;;;;;;1.98;0.68;;;;;;;14.44;51.01;100860.72;5054657;28;20035;-73
2021/11/29 10:46:35;;;;;;;4.32;0.85;;;;;;;17.14;45.20;100869.19;5036609;28;20112;-72
2021/11/29 10:49:07;;;;;;;3.80;0.90;;;;;;;17.74;42.13;100860.22;5036720;28;20502;-72
2021/11/29 10:51:33;;;;;;;2.75;0.70;;;;;;;19.79;37.06;100867.59;5036722;28;20029;-72
2021/11/29 10:54:03;;;;;;;3.10;0.80;;;;;;;17.24;42.81;100861.59;5036453;28;20039;-74
2021/11/29 10:56:30;;;;;;;4.40;0.85;;;;;;;10.82;59.57;100871.88;5054022;28;20020;-71
2021/11/29 10:59:02;;;;;;;4.22;1.00;;;;;;;9.38;65.45;100865.63;5054001;28;20029;-72
2021/11/29 11:01:36;;;;;;;4.20;1.27;;;;;;;9.05;66.32;100865.13;5054316;28;20029;-71
2021/11/29 11:04:02;;;;;;;4.20;1.30;;;;;;;8.45;69.32;100869.28;5054776;28;20464;-71
2021/11/29 11:06:34;;;;;;;4.80;0.98;;;;;;;8.18;71.64;100867.94;5054745;28;20108;-71
2021/11/29 11:09:00;;;;;;;6.70;1.00;;;;;;;8.48;69.15;100866.34;5037126;28;20061;-71
2021/11/29 11:11:44;;;;;;;6.05;1.20;;;;;;;8.51;70.44;100876.31;5036507;28;20037;-70
2021/11/29 11:14:15;;;;;;;3.55;1.10;;;;;;;8.14;71.77;100871.81;5036071;28;20028;-71
2021/11/29 11:16:52;;;;;;;4.28;1.20;;;;;;;8.01;74.08;100877.53;5032670;28;20045;-71
2021/11/29 11:19:22;;;;;;;4.47;1.00;;;;;;;7.58;73.85;100859.00;5032819;28;20025;-70
2021/11/29 11:21:48;;;;;;;1.65;0.75;;;;;;;7.60;73.71;100864.81;5033301;28;20029;-71
2021/11/29 11:24:29;;;;;;;4.45;1.00;;;;;;;7.94;70.83;100878.34;5032685;28;20017;-70
2021/11/29 11:30:19;;;;;;;5.75;0.98;;;;;;;7.66;73.63;100887.28;5034438;28;20128;-70
2021/11/29 11:32:49;;;;;;;5.07;1.20;;;;;;;7.73;72.39;100897.72;5033869;28;20052;-71
2021/11/29 11:35:16;;;;;;;5.57;1.17;;;;;;;7.81;70.66;100886.59;5033840;28;20087;-70
2021/11/29 11:37:48;;;;;;;5.75;1.00;;;;;;;7.83;71.88;100882.91;5033949;28;20026;-71
2021/11/29 11:40:21;;;;;;;3.22;0.80;;;;;;;10.68;63.01;100880.50;5033927;28;20053;-72